Flight Track Log - Related Links

Times and Time Zones

All times are in EDT time to prevent confusion due to time zone crossing. See the TAM3736 flight status page for this flight to view local times or setup timezone preferences in your user account.


Time Position Orientation Groundspeed Altitude Reporting Facility
EDT Latitude Longitude Course Direction KTS MPH feet Rate Location/Type
Sun 09:44:00 PM -22.8608 -47.4208 317° Northwest  Level Estimated
Sun 09:45:00 PM -22.8060 -47.4752 318° Northwest  Level Estimated
Sun 09:46:00 PM -22.7511 -47.5295 318° Northwest  Level Estimated
Sun 09:47:00 PM -22.6962 -47.5837 318° Northwest  Level Estimated
Sun 09:48:00 PM -22.6413 -47.6380 318° Northwest  Level Estimated
Sun 09:49:00 PM -22.5864 -47.6921 318° Northwest  Level Estimated
Sun 09:50:00 PM -22.5315 -47.7463 318° Northwest  Level Estimated
Sun 09:51:00 PM -22.4765 -47.8003 318° Northwest  Level Estimated
Sun 09:52:00 PM -22.4216 -47.8544 318° Northwest  Level Estimated
Sun 09:53:00 PM -22.3666 -47.9084 318° Northwest  Level Estimated
Sun 09:54:00 PM -22.3116 -47.9623 318° Northwest  Level Estimated
Sun 09:55:00 PM -22.2565 -48.0162 318° Northwest  Level Estimated
Sun 09:56:00 PM -22.2015 -48.0701 318° Northwest  Level Estimated
Sun 09:57:00 PM -22.1464 -48.1239 318° Northwest  Level Estimated
Sun 09:58:00 PM -22.0913 -48.1777 318° Northwest  Level Estimated
Sun 09:59:00 PM -22.0362 -48.2314 318° Northwest  Level Estimated
Sun 10:00:00 PM -21.9811 -48.2851 318° Northwest  Level Estimated
Sun 10:01:00 PM -21.9260 -48.3388 318° Northwest  Level Estimated
Sun 10:02:00 PM -21.8708 -48.3924 318° Northwest  Level Estimated
Sun 10:03:00 PM -21.8157 -48.4460 318° Northwest  Level Estimated
Sun 10:04:00 PM -21.7605 -48.4995 318° Northwest  Level Estimated
Sun 10:05:00 PM -21.7053 -48.5530 318° Northwest  Level Estimated
Sun 10:06:00 PM -21.6501 -48.6065 318° Northwest  Level Estimated
Sun 10:07:00 PM -21.5948 -48.6599 318° Northwest  Level Estimated
Sun 10:08:00 PM -21.5396 -48.7133 318° Northwest  Level Estimated
Sun 10:09:00 PM -21.4843 -48.7666 318° Northwest  Level Estimated
Sun 10:10:00 PM -21.4290 -48.8199 318° Northwest  Level Estimated
Sun 10:11:00 PM -21.3737 -48.8731 318° Northwest  Level Estimated
Sun 10:12:00 PM -21.3184 -48.9263 318° Northwest  Level Estimated
Sun 10:13:00 PM -21.2631 -48.9795 318° Northwest  Level Estimated

Login

Don't have an account? Register now (free) for customized features, flight alerts, and more!